Time;durP1;ratioP1;P1;durP2;ratioP2;P2;SDS_P1;SDS_P2;PMS_P1;PMS_P2;Temp;Humidity;BMP_temperature;BMP_pressure;BME280_temperature;BME280_humidity;BME280_pressure;Samples;Min_cycle;Max_cycle;Signal;HPM_P1;HPM_P2
2023/07/09 00:00:14;;;;;;;8.60;7.80;;;22.10;99.90;;;;;;4972162;28;20414;-89
2023/07/09 00:02:39;;;;;;;10.40;8.45;;;21.90;99.90;;;;;;4973149;28;20434;-90
2023/07/09 00:05:09;;;;;;;8.32;7.50;;;21.80;99.90;;;;;;4956007;28;21191;-91
2023/07/09 00:07:35;;;;;;;8.52;7.63;;;21.80;99.90;;;;;;4972932;28;20422;-89
2023/07/09 00:10:01;;;;;;;8.85;7.72;;;22.00;99.90;;;;;;4956239;28;20422;-89
2023/07/09 00:12:27;;;;;;;8.95;8.05;;;21.70;99.90;;;;;;4956375;28;20450;-88
2023/07/09 00:14:54;;;;;;;9.50;8.50;;;21.70;99.90;;;;;;4953292;28;20424;-89
2023/07/09 00:17:27;;;;;;;8.67;7.87;;;21.70;99.90;;;;;;4968447;28;20452;-89
2023/07/09 00:19:53;;;;;;;10.40;8.87;;;21.70;99.90;;;;;;4969423;28;20408;-88
2023/07/09 00:22:20;;;;;;;9.50;8.60;;;21.90;99.90;;;;;;4952279;28;20949;-89
2023/07/09 00:24:51;;;;;;;10.87;8.13;;;21.60;99.90;;;;;;4952909;28;20416;-90
2023/07/09 00:27:19;;;;;;;9.15;8.25;;;21.70;99.90;;;;;;4969158;28;20932;-89
2023/07/09 00:29:45;;;;;;;9.13;8.07;;;21.40;99.90;;;;;;4952200;28;21090;-90
2023/07/09 00:32:16;;;;;;;9.60;8.48;;;21.50;99.90;;;;;;4952775;28;20948;-88
2023/07/09 00:34:48;;;;;;;10.57;8.88;;;21.30;99.90;;;;;;4967823;28;20459;-90
2023/07/09 00:37:19;;;;;;;9.67;8.63;;;21.30;99.90;;;;;;4968946;28;20408;-90
2023/07/09 00:39:46;;;;;;;9.40;8.40;;;21.60;99.90;;;;;;4967800;28;20499;-88
2023/07/09 00:42:17;;;;;;;9.68;8.45;;;21.20;99.90;;;;;;4968572;28;20435;-88
2023/07/09 00:44:47;;;;;;;9.35;8.35;;;21.20;99.90;;;;;;4968906;28;20424;-88
2023/07/09 00:47:23;;;;;;;11.07;8.93;;;21.10;99.90;;;;;;4968295;28;20420;-90
2023/07/09 00:49:52;;;;;;;10.20;8.60;;;21.10;99.90;;;;;;4969148;28;20447;-89
2023/07/09 00:52:49;;;;;;;9.55;8.50;;;21.20;99.90;;;;;;4967792;28;20408;-88
2023/07/09 00:55:19;;;;;;;12.05;8.90;;;21.30;99.90;;;;;;4951747;28;20554;-89
2023/07/09 00:57:55;;;;;;;9.07;8.18;;;21.00;99.90;;;;;;4968825;28;20424;-88
2023/07/09 01:00:23;;;;;;;9.57;8.65;;;20.80;99.90;;;;;;4951513;28;20416;-90
2023/07/09 01:02:48;;;;;;;9.40;8.25;;;20.90;99.90;;;;;;4968906;28;20945;-90
2023/07/09 01:05:17;;;;;;;11.23;9.15;;;20.80;99.90;;;;;;4967291;28;20427;-89
2023/07/09 01:07:45;;;;;;;9.98;8.93;;;20.70;99.90;;;;;;4968712;28;20988;-88
2023/07/09 01:10:13;;;;;;;9.73;8.73;;;20.70;99.90;;;;;;4967224;28;20416;-90
2023/07/09 01:12:40;;;;;;;10.02;9.02;;;20.60;99.90;;;;;;4984378;28;20439;-89
2023/07/09 01:15:07;;;;;;;9.57;8.68;;;20.70;99.90;;;;;;4968056;28;20427;-89
2023/07/09 01:17:33;;;;;;;11.15;8.80;;;20.60;99.90;;;;;;4967713;28;20416;-90
2023/07/09 01:19:59;;;;;;;10.07;9.17;;;20.90;99.90;;;;;;4968645;28;20936;-88
2023/07/09 01:22:27;;;;;;;9.47;8.50;;;20.40;99.90;;;;;;4951232;28;20440;-90
2023/07/09 01:24:55;;;;;;;10.02;9.05;;;20.40;99.90;;;;;;4958990;28;20412;-89
2023/07/09 01:27:27;;;;;;;9.70;8.80;;;20.30;99.90;;;;;;4935327;28;20416;-89
2023/07/09 01:29:55;;;;;;;9.45;8.50;;;20.10;99.90;;;;;;4951776;28;20942;-89
2023/07/09 01:32:22;;;;;;;9.57;8.68;;;20.20;99.90;;;;;;4935810;28;20422;-89
2023/07/09 01:34:53;;;;;;;10.07;8.85;;;20.20;99.90;;;;;;4935377;28;20439;-90
2023/07/09 01:37:24;;;;;;;10.07;9.00;;;20.50;99.90;;;;;;4935789;28;20419;-89
2023/07/09 01:39:51;;;;;;;8.88;8.00;;;20.10;99.90;;;;;;4950467;28;20412;-89
2023/07/09 01:42:21;;;;;;;9.53;8.63;;;20.00;99.90;;;;;;4967356;28;20432;-88
2023/07/09 01:44:49;;;;;;;11.82;8.95;;;19.90;99.90;;;;;;4951130;28;20438;-89
2023/07/09 01:47:15;;;;;;;9.80;8.85;;;20.00;99.90;;;;;;4934854;28;20408;-88
2023/07/09 01:49:41;;;;;;;11.68;9.20;;;20.30;99.90;;;;;;4935797;28;20419;-88
2023/07/09 01:52:08;;;;;;;9.33;8.43;;;19.90;99.90;;;;;;4934471;28;20792;-89
2023/07/09 01:54:37;;;;;;;9.77;8.77;;;19.90;99.90;;;;;;4935571;28;20408;-89
2023/07/09 01:57:14;;;;;;;9.70;8.65;;;19.90;99.90;;;;;;4934110;28;20400;-89
2023/07/09 01:59:41;;;;;;;10.48;8.82;;;19.90;99.90;;;;;;4934549;28;20928;-90
2023/07/09 02:02:18;;;;;;;10.45;8.80;;;20.10;99.90;;;;;;4930899;29;20497;-88
2023/07/09 02:04:44;;;;;;;10.23;9.23;;;19.80;99.90;;;;;;4962625;28;20412;-90
2023/07/09 02:07:09;;;;;;;9.20;8.27;;;20.10;99.90;;;;;;4934843;28;20408;-89
2023/07/09 02:09:35;;;;;;;9.65;8.75;;;20.10;99.90;;;;;;4949840;28;20852;-88
2023/07/09 02:12:02;;;;;;;10.40;9.30;;;20.10;99.90;;;;;;4935358;28;20416;-89
2023/07/09 02:14:28;;;;;;;10.40;9.40;;;19.70;99.90;;;;;;4950547;28;20497;-89
2023/07/09 02:16:53;;;;;;;10.05;9.13;;;20.10;99.90;;;;;;4970518;28;20403;-90
2023/07/09 02:19:19;;;;;;;9.60;8.70;;;19.70;99.90;;;;;;4970388;28;20407;-88
2023/07/09 02:21:45;;;;;;;9.75;8.88;;;19.70;99.90;;;;;;4986484;28;20953;-89
2023/07/09 02:24:10;;;;;;;9.37;8.47;;;19.80;99.90;;;;;;4970156;28;20954;-89
2023/07/09 02:26:36;;;;;;;10.25;9.18;;;19.70;99.90;;;;;;4969649;28;20410;-89
2023/07/09 02:29:02;;;;;;;10.70;9.63;;;19.60;99.90;;;;;;4970293;28;20417;-88
2023/07/09 02:31:29;;;;;;;10.63;9.52;;;19.50;99.90;;;;;;4985546;28;21050;-89
2023/07/09 02:33:56;;;;;;;11.13;9.70;;;19.40;99.90;;;;;;4970421;28;20418;-88
2023/07/09 02:36:24;;;;;;;10.40;9.40;;;19.50;99.90;;;;;;4969554;28;20399;-88
2023/07/09 02:38:49;;;;;;;10.55;9.55;;;19.70;99.90;;;;;;4985789;28;20495;-90
2023/07/09 02:41:15;;;;;;;10.27;9.27;;;19.90;99.90;;;;;;4986004;28;20548;-89
2023/07/09 02:43:41;;;;;;;10.63;9.50;;;19.40;99.90;;;;;;4969272;28;20434;-89
2023/07/09 02:46:07;;;;;;;9.73;8.75;;;19.40;99.90;;;;;;4970213;28;20419;-89
2023/07/09 02:48:32;;;;;;;9.97;9.03;;;19.30;99.90;;;;;;4984944;28;20423;-89
2023/07/09 02:50:58;;;;;;;10.88;9.88;;;19.30;99.90;;;;;;4970524;28;20442;-89
2023/07/09 02:53:24;;;;;;;10.88;9.88;;;19.20;99.90;;;;;;4969366;28;20937;-89
2023/07/09 02:55:49;;;;;;;10.03;9.03;;;19.20;99.90;;;;;;4969930;28;20505;-88
2023/07/09 02:58:16;;;;;;;10.20;9.30;;;19.20;99.90;;;;;;4985324;28;20894;-89
2023/07/09 03:00:41;;;;;;;11.02;9.93;;;19.10;99.90;;;;;;4969799;28;20811;-89
2023/07/09 03:03:07;;;;;;;11.17;10.13;;;19.10;99.90;;;;;;4985973;28;20442;-88
2023/07/09 03:05:33;;;;;;;10.80;9.68;;;19.30;99.90;;;;;;4968623;28;20414;-90
2023/07/09 03:07:59;;;;;;;10.95;9.85;;;19.00;99.90;;;;;;4970452;28;20406;-90
2023/07/09 03:10:25;;;;;;;10.87;9.77;;;18.90;99.90;;;;;;4984681;28;20406;-88
2023/07/09 03:12:50;;;;;;;10.70;9.55;;;18.70;99.90;;;;;;4969750;28;20476;-88
2023/07/09 03:15:16;;;;;;;10.87;9.77;;;19.60;99.90;;;;;;4985147;28;20842;-88
2023/07/09 03:17:42;;;;;;;10.82;9.77;;;18.90;99.90;;;;;;4969373;28;20411;-89
2023/07/09 03:20:08;;;;;;;10.20;9.20;;;18.90;99.90;;;;;;4985870;28;20414;-89
2023/07/09 03:22:34;;;;;;;10.73;9.73;;;18.80;99.90;;;;;;4985268;28;20815;-90
2023/07/09 03:24:59;;;;;;;10.70;9.60;;;18.90;99.90;;;;;;4969902;28;20410;-88
2023/07/09 03:27:25;;;;;;;10.80;9.70;;;18.80;99.90;;;;;;4984638;28;20422;-88
2023/07/09 03:29:50;;;;;;;11.07;9.98;;;18.80;99.90;;;;;;4969617;28;20414;-88
2023/07/09 03:32:16;;;;;;;10.97;9.87;;;18.80;99.90;;;;;;4969820;28;20461;-89
2023/07/09 03:34:42;;;;;;;11.23;10.07;;;18.80;99.90;;;;;;4989585;28;20409;-88
2023/07/09 03:37:07;;;;;;;10.70;9.53;;;18.90;99.90;;;;;;4973159;28;20418;-89
2023/07/09 03:39:33;;;;;;;10.60;9.57;;;18.90;99.90;;;;;;4972727;28;20414;-89
2023/07/09 03:41:59;;;;;;;11.00;9.90;;;18.90;99.90;;;;;;4973242;28;20407;-89
2023/07/09 03:44:25;;;;;;;10.75;9.75;;;18.50;99.90;;;;;;4972183;28;20918;-89
2023/07/09 03:46:51;;;;;;;11.20;10.00;;;19.00;99.90;;;;;;4973115;28;20464;-88
2023/07/09 03:49:17;;;;;;;10.25;9.20;;;19.00;99.90;;;;;;4972714;28;20410;-89
2023/07/09 03:51:42;;;;;;;11.13;10.00;;;19.10;99.90;;;;;;4973633;28;20421;-89
2023/07/09 03:54:08;;;;;;;11.38;10.07;;;19.10;99.90;;;;;;4972737;28;20414;-88
2023/07/09 03:56:34;;;;;;;10.50;9.50;;;19.10;99.90;;;;;;4989018;28;20550;-89
2023/07/09 03:58:59;;;;;;;12.02;9.95;;;19.00;99.90;;;;;;4989360;28;21217;-89
2023/07/09 04:01:25;;;;;;;10.67;9.67;;;19.10;99.90;;;;;;4988681;28;20512;-89
2023/07/09 04:03:51;;;;;;;11.30;10.20;;;19.50;99.90;;;;;;4989265;28;20521;-88
2023/07/09 04:06:16;;;;;;;10.88;9.38;;;19.20;99.90;;;;;;4972079;28;20470;-89
2023/07/09 04:08:42;;;;;;;10.23;8.87;;;19.30;99.90;;;;;;4989502;28;20414;-91
2023/07/09 04:11:08;;;;;;;10.35;9.35;;;19.60;99.90;;;;;;4971665;28;20410;-88
2023/07/09 04:13:33;;;;;;;11.37;9.93;;;19.70;99.90;;;;;;4972377;28;20771;-89
2023/07/09 04:15:59;;;;;;;10.70;9.70;;;19.80;99.90;;;;;;5004831;28;20411;-89
2023/07/09 04:18:25;;;;;;;10.87;9.90;;;19.50;99.90;;;;;;4988266;28;20530;-90
2023/07/09 04:20:51;;;;;;;11.57;10.38;;;19.70;99.90;;;;;;4989291;28;20430;-89
2023/07/09 04:23:18;;;;;;;10.50;8.75;;;19.80;99.90;;;;;;4971538;28;20491;-89
2023/07/09 04:25:44;;;;;;;10.88;9.80;;;19.80;99.90;;;;;;4972981;28;20464;-90
2023/07/09 04:28:09;;;;;;;11.20;10.20;;;19.80;99.90;;;;;;4971822;28;20455;-89
2023/07/09 04:30:35;;;;;;;11.80;10.80;;;19.80;99.90;;;;;;4972761;28;20414;-89
2023/07/09 04:33:01;;;;;;;10.57;9.47;;;20.20;99.90;;;;;;4988349;28;20410;-90
2023/07/09 04:35:27;;;;;;;11.23;10.02;;;20.40;99.90;;;;;;4971710;28;20414;-89
2023/07/09 04:37:52;;;;;;;10.27;9.27;;;20.20;99.90;;;;;;4972834;28;20434;-88
2023/07/09 04:40:19;;;;;;;10.30;9.30;;;20.10;99.90;;;;;;4971710;28;21071;-90
2023/07/09 04:42:44;;;;;;;10.60;9.70;;;20.30;99.90;;;;;;4972551;28;20448;-90
2023/07/09 04:45:11;;;;;;;10.98;9.02;;;20.30;99.90;;;;;;4970387;28;20422;-89
2023/07/09 04:47:38;;;;;;;10.57;9.57;;;20.40;99.90;;;;;;4988951;28;20407;-90
2023/07/09 04:50:07;;;;;;;11.10;9.63;;;20.60;99.90;;;;;;4971915;28;20406;-90
2023/07/09 04:52:33;;;;;;;10.25;9.05;;;20.60;99.90;;;;;;4971983;28;20404;-87
2023/07/09 04:54:59;;;;;;;11.38;9.70;;;20.70;99.90;;;;;;4967435;28;21001;-88
2023/07/09 04:57:26;;;;;;;10.60;9.60;;;20.80;99.90;;;;;;4970542;28;20406;-90
2023/07/09 04:59:52;;;;;;;11.70;9.43;;;20.90;99.90;;;;;;5004165;28;20446;-89
2023/07/09 05:02:18;;;;;;;10.80;9.70;;;21.00;99.90;;;;;;4970423;28;20473;-87
2023/07/09 05:04:43;;;;;;;10.73;9.60;;;21.30;99.90;;;;;;4986293;28;20473;-88
2023/07/09 05:07:09;;;;;;;10.23;9.15;;;21.50;99.90;;;;;;4969255;28;20862;-89
2023/07/09 05:21:45;;;;;;;11.13;9.63;;;21.80;99.90;;;;;;4851089;29;20842;-88
2023/07/09 05:24:11;;;;;;;10.37;9.33;;;22.00;99.90;;;;;;4827694;29;20486;-87
2023/07/09 05:26:37;;;;;;;10.73;9.43;;;22.10;99.90;;;;;;4986824;28;20946;-88
2023/07/09 05:29:06;;;;;;;10.87;9.53;;;22.30;99.90;;;;;;4969504;28;20896;-89
2023/07/09 05:31:32;;;;;;;12.23;10.00;;;22.20;99.90;;;;;;4983210;28;20410;-90
2023/07/09 05:34:07;;;;;;;10.15;9.15;;;22.40;99.90;;;;;;4986081;28;20764;-89
2023/07/09 05:36:40;;;;;;;10.10;9.10;;;22.60;99.90;;;;;;4969953;28;20911;-90
2023/07/09 05:39:10;;;;;;;10.82;9.15;;;22.50;99.90;;;;;;4969901;28;20876;-91
2023/07/09 05:41:36;;;;;;;10.27;9.25;;;22.70;99.90;;;;;;4969820;28;20410;-89
2023/07/09 05:44:02;;;;;;;10.77;9.63;;;22.80;99.90;;;;;;4985780;28;20430;-90
2023/07/09 05:46:27;;;;;;;10.50;9.27;;;22.90;99.90;;;;;;4985543;28;20465;-91
2023/07/09 05:48:53;;;;;;;9.97;8.97;;;23.00;99.90;;;;;;4985090;28;20414;-89
2023/07/09 05:51:21;;;;;;;9.88;8.88;;;23.10;99.90;;;;;;4970093;28;20411;-86
2023/07/09 05:53:47;;;;;;;9.88;8.98;;;23.10;99.90;;;;;;5002417;28;20477;-88
2023/07/09 05:56:12;;;;;;;10.55;8.80;;;23.30;99.90;;;;;;4986418;28;20448;-89
2023/07/09 05:58:38;;;;;;;12.17;9.27;;;23.10;99.90;;;;;;4986131;28;20415;-87
2023/07/09 06:01:04;;;;;;;10.20;9.25;;;23.00;99.90;;;;;;4970134;28;20489;-87
2023/07/09 06:03:30;;;;;;;10.40;9.37;;;23.20;99.90;;;;;;4986017;28;20434;-87
2023/07/09 06:05:57;;;;;;;9.87;8.93;;;23.10;99.90;;;;;;4985968;28;20410;-89
2023/07/09 06:08:22;;;;;;;10.95;9.82;;;22.90;99.90;;;;;;4986049;28;20454;-88
2023/07/09 06:11:07;;;;;;;11.23;9.27;;;23.50;99.90;;;;;;4969401;28;20415;-88
2023/07/09 06:13:33;;;;;;;11.65;9.40;;;23.80;99.90;;;;;;4985586;28;20476;-88
2023/07/09 06:16:00;;;;;;;10.15;8.90;;;23.50;99.90;;;;;;4985707;28;20812;-88
2023/07/09 06:18:29;;;;;;;10.93;9.43;;;23.80;99.90;;;;;;4985239;28;20406;-89
2023/07/09 06:20:58;;;;;;;12.13;9.50;;;24.00;99.90;;;;;;4969901;28;20465;-88
2023/07/09 06:23:24;;;;;;;10.68;9.57;;;24.10;98.80;;;;;;4985194;28;20430;-86
2023/07/09 06:25:51;;;;;;;10.27;9.30;;;24.40;98.80;;;;;;4969911;28;20846;-88
2023/07/09 06:28:22;;;;;;;10.35;9.40;;;24.30;97.80;;;;;;4986892;28;20399;-89
2023/07/09 06:30:48;;;;;;;10.48;9.48;;;24.40;99.90;;;;;;4969149;28;20511;-88
2023/07/09 06:33:16;;;;;;;10.60;9.50;;;24.50;99.90;;;;;;4969645;28;20513;-89
2023/07/09 06:35:53;;;;;;;10.10;9.10;;;24.40;99.60;;;;;;4969279;28;20507;-88
2023/07/09 06:38:19;;;;;;;10.98;9.88;;;24.40;99.20;;;;;;4985534;28;20417;-88
2023/07/09 06:40:45;;;;;;;10.00;9.03;;;24.30;99.50;;;;;;4968876;28;20422;-88
2023/07/09 06:43:11;;;;;;;11.63;9.43;;;24.50;99.90;;;;;;4969533;28;20920;-88
2023/07/09 06:45:37;;;;;;;11.23;10.13;;;24.50;98.90;;;;;;4985485;28;20461;-88
2023/07/09 06:48:03;;;;;;;11.20;9.75;;;24.70;98.50;;;;;;4969580;28;20461;-88
2023/07/09 06:50:32;;;;;;;10.70;9.63;;;24.80;98.80;;;;;;4969125;28;20761;-87
2023/07/09 06:52:58;;;;;;;10.88;9.27;;;25.10;96.90;;;;;;4969064;28;20423;-87
2023/07/09 06:55:23;;;;;;;10.60;9.20;;;25.30;97.50;;;;;;4985282;28;20421;-90
2023/07/09 06:57:49;;;;;;;10.43;9.30;;;25.60;96.90;;;;;;4985161;28;20414;-90
2023/07/09 07:00:15;;;;;;;10.02;9.02;;;25.90;94.80;;;;;;4985823;28;20557;-89
2023/07/09 07:02:41;;;;;;;10.25;9.25;;;26.00;95.70;;;;;;4968535;28;20815;-89
2023/07/09 07:05:06;;;;;;;10.90;9.60;;;26.20;92.10;;;;;;4984763;28;20403;-88
2023/07/09 07:07:32;;;;;;;11.53;9.40;;;26.40;91.60;;;;;;4986554;28;20816;-89
2023/07/09 07:09:58;;;;;;;10.25;9.07;;;26.60;90.70;;;;;;4988663;28;20452;-88
2023/07/09 07:12:29;;;;;;;10.37;8.33;;;26.60;94.20;;;;;;4988804;28;20398;-85
2023/07/09 07:14:55;;;;;;;11.88;9.80;;;26.80;95.50;;;;;;4985302;28;20435;-89
2023/07/09 07:17:22;;;;;;;10.68;9.57;;;26.50;92.50;;;;;;4937315;28;20408;-90
2023/07/09 07:19:49;;;;;;;11.75;10.55;;;26.40;96.80;;;;;;4937404;28;20992;-90
2023/07/09 07:22:17;;;;;;;11.77;10.63;;;26.40;92.90;;;;;;4937280;28;21266;-89
2023/07/09 07:24:42;;;;;;;13.35;11.95;;;26.50;94.90;;;;;;4938566;28;20545;-88
2023/07/09 07:27:08;;;;;;;12.63;11.33;;;26.30;94.40;;;;;;4953083;28;20935;-88
2023/07/09 07:29:34;;;;;;;12.25;11.05;;;26.20;97.40;;;;;;4937760;28;20777;-88
2023/07/09 07:32:00;;;;;;;12.23;10.43;;;26.50;98.50;;;;;;4968952;28;20416;-87
2023/07/09 07:34:26;;;;;;;12.43;10.73;;;26.80;95.40;;;;;;4952930;28;20458;-89
2023/07/09 07:36:52;;;;;;;11.77;10.35;;;26.90;93.30;;;;;;4937200;28;20895;-89
2023/07/09 07:39:17;;;;;;;13.50;12.03;;;27.00;95.80;;;;;;4937473;28;20935;-90
2023/07/09 07:41:43;;;;;;;12.68;11.15;;;27.10;92.40;;;;;;4952739;28;20420;-87
2023/07/09 07:44:09;;;;;;;11.85;10.65;;;27.60;95.10;;;;;;4952840;28;20467;-87
2023/07/09 07:46:34;;;;;;;16.50;14.90;;;27.40;95.80;;;;;;4937623;28;20932;-88
2023/07/09 07:49:00;;;;;;;16.02;14.43;;;27.40;92.60;;;;;;4969728;28;20486;-89
2023/07/09 07:51:26;;;;;;;15.93;14.43;;;27.60;87.90;;;;;;4937301;28;20419;-89
2023/07/09 07:53:52;;;;;;;15.30;13.75;;;28.00;89.00;;;;;;4970747;28;20447;-89
2023/07/09 07:56:18;;;;;;;15.60;14.00;;;27.80;90.90;;;;;;4953439;28;20422;-90
2023/07/09 07:58:44;;;;;;;16.73;15.17;;;27.90;93.60;;;;;;4937184;28;20424;-90
2023/07/09 08:01:10;;;;;;;16.88;15.02;;;27.60;91.00;;;;;;4936926;28;20474;-88
2023/07/09 08:03:35;;;;;;;15.47;13.50;;;27.50;93.80;;;;;;4937044;28;20951;-90
2023/07/09 08:06:01;;;;;;;16.33;14.68;;;27.50;96.70;;;;;;4937352;28;20428;-88
2023/07/09 08:08:27;;;;;;;17.00;15.30;;;27.60;94.10;;;;;;4937300;28;20431;-91
2023/07/09 08:11:09;;;;;;;18.08;15.95;;;27.80;97.70;;;;;;4952828;28;20415;-90
2023/07/09 08:13:36;;;;;;;17.50;15.15;;;27.80;93.70;;;;;;4937183;28;20447;-90
2023/07/09 08:16:02;;;;;;;17.83;16.02;;;27.80;94.80;;;;;;4956064;28;20425;-91
2023/07/09 08:18:28;;;;;;;18.38;16.52;;;27.80;93.70;;;;;;4956363;28;20415;-91
2023/07/09 08:20:53;;;;;;;18.95;17.13;;;27.70;93.50;;;;;;4956698;28;20508;-89
2023/07/09 08:23:19;;;;;;;18.40;16.70;;;27.80;93.90;;;;;;4972389;28;20434;-93
2023/07/09 08:25:53;;;;;;;18.60;16.77;;;27.70;98.20;;;;;;4956409;28;20406;-89
2023/07/09 08:28:19;;;;;;;19.70;17.75;;;28.10;97.50;;;;;;4955925;28;20429;-90
2023/07/09 08:30:45;;;;;;;18.00;16.30;;;27.80;95.80;;;;;;4956408;28;20447;-91
2023/07/09 08:33:10;;;;;;;18.08;16.27;;;28.10;97.10;;;;;;4956850;28;20517;-91
2023/07/09 08:35:36;;;;;;;17.95;16.25;;;28.10;94.50;;;;;;4956596;28;20406;-91
2023/07/09 08:38:02;;;;;;;17.90;16.30;;;28.10;93.60;;;;;;4956568;28;20414;-90
2023/07/09 08:40:27;;;;;;;17.48;15.98;;;28.20;99.40;;;;;;4956572;28;20409;-90
2023/07/09 08:43:02;;;;;;;18.35;16.65;;;28.20;97.80;;;;;;4956087;28;20935;-90
2023/07/09 08:45:42;;;;;;;16.90;15.23;;;28.40;99.30;;;;;;4955937;28;20415;-90
2023/07/09 08:48:24;;;;;;;17.52;15.93;;;28.40;97.60;;;;;;4956796;28;20506;-91
2023/07/09 08:50:57;;;;;;;17.30;15.43;;;28.60;98.40;;;;;;4956195;28;21113;-90
2023/07/09 08:53:45;;;;;;;15.48;14.00;;;28.70;93.90;;;;;;4955972;28;20421;-89
2023/07/09 08:56:14;;;;;;;15.38;13.88;;;28.70;93.40;;;;;;4956281;28;20473;-89
2023/07/09 08:58:41;;;;;;;14.80;13.38;;;28.80;93.00;;;;;;4956241;28;20414;-91
2023/07/09 09:01:17;;;;;;;16.42;14.82;;;28.90;94.90;;;;;;4972427;28;20832;-91
2023/07/09 09:04:00;;;;;;;16.95;15.15;;;29.00;95.60;;;;;;4955517;28;20502;-90
2023/07/09 09:06:29;;;;;;;15.50;14.00;;;29.20;92.90;;;;;;4955557;28;20919;-90
2023/07/09 09:09:11;;;;;;;15.20;13.63;;;29.40;92.90;;;;;;4955776;28;20434;-91
2023/07/09 09:11:53;;;;;;;15.35;13.95;;;29.50;88.80;;;;;;4955633;28;20501;-92
2023/07/09 09:14:23;;;;;;;14.35;12.77;;;29.70;85.30;;;;;;4954734;28;20845;-92
2023/07/09 09:16:51;;;;;;;13.82;12.43;;;29.60;81.10;;;;;;4977630;28;20401;-91
2023/07/09 09:19:27;;;;;;;15.45;14.05;;;29.90;93.30;;;;;;4987551;28;20415;-92
2023/07/09 09:22:08;;;;;;;11.27;10.17;;;30.10;79.40;;;;;;4987739;28;20426;-92
2023/07/09 09:24:54;;;;;;;12.00;10.75;;;30.00;63.20;;;;;;4971108;28;20477;-92
2023/07/09 09:27:19;;;;;;;11.70;10.50;;;29.80;67.80;;;;;;4987339;28;20423;-92
2023/07/09 09:29:45;;;;;;;12.98;11.05;;;29.80;70.70;;;;;;4970991;28;20407;-92
2023/07/09 09:32:22;;;;;;;11.52;10.38;;;29.90;68.60;;;;;;4987274;28;20958;-92
2023/07/09 09:34:48;;;;;;;10.73;9.73;;;29.90;75.40;;;;;;4971470;28;20406;-90
2023/07/09 09:37:27;;;;;;;11.60;10.40;;;30.10;74.80;;;;;;4987063;28;20410;-91
2023/07/09 09:39:53;;;;;;;11.90;10.90;;;30.20;67.40;;;;;;4987229;28;20417;-91
2023/07/09 09:42:18;;;;;;;11.03;9.93;;;30.20;64.90;;;;;;4971033;28;20422;-92
2023/07/09 09:44:45;;;;;;;10.27;9.27;;;30.20;72.40;;;;;;4987002;28;21096;-93
2023/07/09 09:47:12;;;;;;;10.27;8.52;;;30.30;77.20;;;;;;4970668;28;20417;-92
2023/07/09 09:49:42;;;;;;;10.18;8.95;;;30.30;74.00;;;;;;4970365;28;20421;-91
2023/07/09 09:52:14;;;;;;;11.00;9.00;;;30.40;64.00;;;;;;4970808;28;20402;-92
2023/07/09 09:54:44;;;;;;;9.43;8.50;;;30.30;65.40;;;;;;4970719;28;20839;-92
2023/07/09 09:57:17;;;;;;;8.77;7.88;;;30.40;67.20;;;;;;4970795;28;20399;-92
2023/07/09 09:59:46;;;;;;;9.95;8.95;;;30.70;77.60;;;;;;4970324;28;20418;-92
2023/07/09 10:02:24;;;;;;;9.52;8.48;;;31.10;70.30;;;;;;4970074;28;20410;-91
2023/07/09 10:04:50;;;;;;;9.77;8.77;;;31.20;63.30;;;;;;4970781;28;20791;-92
2023/07/09 10:07:27;;;;;;;10.18;9.00;;;31.40;64.40;;;;;;4970397;28;20414;-90
2023/07/09 10:09:54;;;;;;;9.90;8.90;;;31.50;63.10;;;;;;4970798;28;20527;-93
2023/07/09 10:12:50;;;;;;;9.23;8.10;;;31.50;57.40;;;;;;4969491;28;20413;-91
2023/07/09 10:15:53;;;;;;;7.75;7.05;;;31.70;55.10;;;;;;4969636;28;20414;-90
2023/07/09 10:19:03;;;;;;;7.00;6.13;;;31.90;55.60;;;;;;4970300;28;20425;-92
2023/07/09 10:21:45;;;;;;;6.30;5.55;;;32.10;53.70;;;;;;4969457;28;20513;-92
2023/07/09 10:24:16;;;;;;;5.60;4.50;;;32.20;50.10;;;;;;4969597;28;20443;-90
2023/07/09 10:27:38;;;;;;;5.25;3.85;;;32.20;43.70;;;;;;4986028;28;20410;-92
2023/07/09 10:30:29;;;;;;;4.93;4.40;;;32.30;43.10;;;;;;4877596;29;20421;-94
2023/07/09 10:33:00;;;;;;;4.88;4.32;;;32.30;42.70;;;;;;4963606;28;20414;-92
2023/07/09 10:35:52;;;;;;;5.10;3.70;;;32.20;41.10;;;;;;4969596;28;20418;-92
2023/07/09 10:38:33;;;;;;;5.10;4.15;;;32.20;46.10;;;;;;4965399;28;20443;-90
2023/07/09 10:41:00;;;;;;;5.35;3.85;;;32.40;46.70;;;;;;4969533;28;20791;-90
2023/07/09 10:43:35;;;;;;;5.88;4.22;;;32.60;44.00;;;;;;4969699;28;20437;-92
2023/07/09 10:46:09;;;;;;;4.88;3.97;;;32.90;42.50;;;;;;4969595;28;20426;-93
2023/07/09 10:48:40;;;;;;;6.50;4.13;;;33.20;42.50;;;;;;4969477;28;20406;-93
2023/07/09 10:51:31;;;;;;;4.35;3.42;;;33.60;43.60;;;;;;4969661;28;20411;-92
2023/07/09 10:54:30;;;;;;;5.93;3.95;;;34.00;37.40;;;;;;4969662;28;20410;-91
2023/07/09 10:57:14;;;;;;;5.20;3.90;;;34.10;38.50;;;;;;4969945;28;20425;-92
2023/07/09 10:59:42;;;;;;;5.78;3.97;;;34.10;41.10;;;;;;4969210;28;20425;-94
2023/07/09 11:02:31;;;;;;;6.20;3.80;;;34.30;39.00;;;;;;4969753;28;20399;-91
2023/07/09 11:05:00;;;;;;;5.88;3.70;;;34.80;42.30;;;;;;4969510;28;20426;-92
2023/07/09 11:07:58;;;;;;;4.32;3.40;;;35.10;40.00;;;;;;4969481;28;20923;-95
2023/07/09 11:10:54;;;;;;;5.20;4.20;;;35.40;33.50;;;;;;4969242;28;20426;-90
2023/07/09 11:13:43;;;;;;;4.95;4.05;;;35.40;33.50;;;;;;4984933;28;20445;-90
2023/07/09 11:16:17;;;;;;;5.32;3.72;;;35.30;35.70;;;;;;4969007;28;20494;-92
2023/07/09 11:18:58;;;;;;;4.30;3.90;;;35.40;35.60;;;;;;4970249;28;20442;-92
2023/07/09 11:21:24;;;;;;;5.70;4.40;;;35.50;38.30;;;;;;4969909;28;20772;-93
2023/07/09 11:23:58;;;;;;;4.32;3.90;;;35.70;39.20;;;;;;4986154;28;20434;-93
2023/07/09 11:26:30;;;;;;;4.10;3.70;;;35.70;38.10;;;;;;4985687;28;20421;-90
2023/07/09 11:29:09;;;;;;;4.95;3.50;;;35.40;36.80;;;;;;4968986;28;20430;-93
2023/07/09 11:31:41;;;;;;;4.10;3.70;;;35.60;37.50;;;;;;4970361;28;20418;-93
2023/07/09 11:34:07;;;;;;;4.95;4.00;;;35.80;33.60;;;;;;4969746;28;20450;-91
2023/07/09 11:36:34;;;;;;;4.22;3.83;;;36.10;33.00;;;;;;4985960;28;20445;-92
2023/07/09 11:39:01;;;;;;;5.73;4.07;;;36.20;34.30;;;;;;4969566;28;20880;-94
2023/07/09 11:41:45;;;;;;;5.30;3.75;;;36.30;33.80;;;;;;4969014;28;20410;-92
2023/07/09 11:44:22;;;;;;;5.50;3.90;;;36.60;36.50;;;;;;4986803;28;20959;-92
2023/07/09 11:47:18;;;;;;;4.67;3.77;;;36.80;37.60;;;;;;4968582;28;20446;-91
2023/07/09 11:49:59;;;;;;;4.93;4.00;;;37.10;38.40;;;;;;4985683;28;20415;-92
2023/07/09 11:52:41;;;;;;;4.80;3.65;;;37.20;35.60;;;;;;4969222;28;20456;-95
2023/07/09 11:55:39;;;;;;;6.13;4.00;;;37.40;34.40;;;;;;4981841;28;20473;-93
2023/07/09 11:58:05;;;;;;;4.82;3.75;;;37.40;31.50;;;;;;4973979;28;20425;-93
2023/07/09 12:00:42;;;;;;;5.13;3.93;;;36.90;33.20;;;;;;4989741;28;20413;-93
2023/07/09 12:03:19;;;;;;;4.93;3.88;;;36.80;32.80;;;;;;4972914;28;20445;-94
2023/07/09 12:05:59;;;;;;;4.60;3.80;;;36.50;33.00;;;;;;4972698;28;20428;-95
2023/07/09 12:08:40;;;;;;;4.57;3.50;;;36.40;34.60;;;;;;4989704;28;20756;-94
2023/07/09 12:11:06;;;;;;;5.75;3.85;;;36.60;33.30;;;;;;4973164;28;20441;-93
2023/07/09 12:13:39;;;;;;;4.72;4.05;;;36.60;31.90;;;;;;4971981;28;20866;-91
2023/07/09 12:16:20;;;;;;;4.90;3.92;;;36.70;33.20;;;;;;4988493;28;21211;-91
2023/07/09 12:18:46;;;;;;;5.10;4.40;;;36.70;31.20;;;;;;4987996;28;20545;-91
2023/07/09 12:21:12;;;;;;;5.78;3.90;;;36.50;31.60;;;;;;4986953;28;20917;-90
2023/07/09 12:23:43;;;;;;;4.57;4.10;;;36.20;36.80;;;;;;4987678;28;20532;-94
2023/07/09 12:26:17;;;;;;;4.50;3.93;;;35.80;31.40;;;;;;4971943;28;20458;-91
2023/07/09 12:28:50;;;;;;;5.43;4.43;;;35.50;38.10;;;;;;4971662;28;20929;-91
2023/07/09 12:31:16;;;;;;;4.60;4.20;;;35.30;36.00;;;;;;4971448;28;20521;-93
2023/07/09 12:33:51;;;;;;;5.88;5.05;;;35.30;39.10;;;;;;4972115;28;20415;-92
2023/07/09 12:36:18;;;;;;;5.72;4.30;;;35.40;37.20;;;;;;4972342;28;20508;-91
2023/07/09 12:38:48;;;;;;;5.43;4.90;;;35.40;40.70;;;;;;4972079;28;21011;-90
2023/07/09 12:41:23;;;;;;;6.60;4.97;;;35.20;38.40;;;;;;4971644;28;20418;-91
2023/07/09 12:43:49;;;;;;;6.30;4.90;;;35.10;41.20;;;;;;4971616;28;20505;-90
2023/07/09 12:46:15;;;;;;;5.03;4.50;;;35.10;40.70;;;;;;4972674;28;20489;-93
2023/07/09 12:48:41;;;;;;;6.80;4.90;;;35.10;43.40;;;;;;4972438;28;20406;-92
2023/07/09 12:51:08;;;;;;;7.63;4.30;;;34.70;41.10;;;;;;4971787;28;20477;-92
2023/07/09 12:53:36;;;;;;;6.22;4.80;;;35.30;41.30;;;;;;4972193;28;20407;-92
2023/07/09 12:56:02;;;;;;;5.03;4.43;;;35.80;39.50;;;;;;4971723;28;20403;-94
2023/07/09 12:58:35;;;;;;;5.88;4.70;;;36.30;41.00;;;;;;4972179;28;20426;-93
2023/07/09 13:01:06;;;;;;;5.80;5.10;;;36.60;40.50;;;;;;4972601;28;20418;-94
2023/07/09 13:03:33;;;;;;;5.57;4.30;;;36.40;40.00;;;;;;4972338;28;20832;-91